sensor_id;sensor_type;location;lat;lon;timestamp;P1;durP1;ratioP1;P2;durP2;ratioP2
3875;SDS011;1953;51.222;6.624;2024-01-15T00:03:42;50.70;;;22.00;;
3875;SDS011;1953;51.222;6.624;2024-01-15T00:08:25;40.13;;;17.43;;
3875;SDS011;1953;51.222;6.624;2024-01-15T00:13:07;34.03;;;13.20;;
3875;SDS011;1953;51.222;6.624;2024-01-15T00:20:43;48.10;;;19.67;;
3875;SDS011;1953;51.222;6.624;2024-01-15T00:25:25;56.40;;;23.90;;
3875;SDS011;1953;51.222;6.624;2024-01-15T00:30:08;44.70;;;17.87;;
3875;SDS011;1953;51.222;6.624;2024-01-15T00:34:51;32.63;;;14.60;;
3875;SDS011;1953;51.222;6.624;2024-01-15T00:39:35;40.37;;;15.43;;
3875;SDS011;1953;51.222;6.624;2024-01-15T00:44:18;56.57;;;21.20;;
3875;SDS011;1953;51.222;6.624;2024-01-15T00:49:00;37.67;;;14.97;;
3875;SDS011;1953;51.222;6.624;2024-01-15T00:53:43;60.70;;;24.60;;
3875;SDS011;1953;51.222;6.624;2024-01-15T00:58:27;51.70;;;21.00;;
3875;SDS011;1953;51.222;6.624;2024-01-15T01:03:10;49.87;;;19.77;;
3875;SDS011;1953;51.222;6.624;2024-01-15T01:07:52;48.40;;;17.77;;
3875;SDS011;1953;51.222;6.624;2024-01-15T01:12:35;50.53;;;21.53;;
3875;SDS011;1953;51.222;6.624;2024-01-15T01:17:19;55.07;;;23.50;;
3875;SDS011;1953;51.222;6.624;2024-01-15T01:22:01;53.13;;;22.87;;
3875;SDS011;1953;51.222;6.624;2024-01-15T01:26:44;50.90;;;22.87;;
3875;SDS011;1953;51.222;6.624;2024-01-15T01:31:27;56.77;;;21.20;;
3875;SDS011;1953;51.222;6.624;2024-01-15T01:36:11;45.60;;;19.70;;
3875;SDS011;1953;51.222;6.624;2024-01-15T01:40:54;46.33;;;20.93;;
3875;SDS011;1953;51.222;6.624;2024-01-15T01:45:36;51.07;;;22.13;;
3875;SDS011;1953;51.222;6.624;2024-01-15T01:50:19;52.03;;;24.10;;
3875;SDS011;1953;51.222;6.624;2024-01-15T01:55:03;50.10;;;22.60;;
3875;SDS011;1953;51.222;6.624;2024-01-15T01:59:48;41.37;;;15.20;;
3875;SDS011;1953;51.222;6.624;2024-01-15T02:04:32;24.37;;;11.00;;
3875;SDS011;1953;51.222;6.624;2024-01-15T02:09:16;39.90;;;14.37;;
3875;SDS011;1953;51.222;6.624;2024-01-15T02:14:01;43.00;;;17.80;;
3875;SDS011;1953;51.222;6.624;2024-01-15T02:18:44;32.50;;;12.63;;
3875;SDS011;1953;51.222;6.624;2024-01-15T02:23:29;39.10;;;15.23;;
3875;SDS011;1953;51.222;6.624;2024-01-15T02:28:12;40.90;;;13.87;;
3875;SDS011;1953;51.222;6.624;2024-01-15T02:32:55;34.53;;;14.10;;
3875;SDS011;1953;51.222;6.624;2024-01-15T02:37:37;46.00;;;19.60;;
3875;SDS011;1953;51.222;6.624;2024-01-15T02:42:21;42.90;;;18.53;;
3875;SDS011;1953;51.222;6.624;2024-01-15T02:47:04;41.17;;;18.77;;
3875;SDS011;1953;51.222;6.624;2024-01-15T02:51:46;44.60;;;18.43;;
3875;SDS011;1953;51.222;6.624;2024-01-15T02:56:29;39.07;;;15.57;;
3875;SDS011;1953;51.222;6.624;2024-01-15T03:01:13;21.97;;;10.90;;
3875;SDS011;1953;51.222;6.624;2024-01-15T03:05:55;18.90;;;9.57;;
3875;SDS011;1953;51.222;6.624;2024-01-15T03:10:38;38.03;;;15.73;;
3875;SDS011;1953;51.222;6.624;2024-01-15T03:15:21;22.13;;;10.03;;
3875;SDS011;1953;51.222;6.624;2024-01-15T03:20:05;31.40;;;14.50;;
3875;SDS011;1953;51.222;6.624;2024-01-15T03:24:48;36.80;;;17.77;;
3875;SDS011;1953;51.222;6.624;2024-01-15T03:29:30;33.20;;;14.33;;
3875;SDS011;1953;51.222;6.624;2024-01-15T03:34:13;36.07;;;15.60;;
3875;SDS011;1953;51.222;6.624;2024-01-15T03:38:57;32.20;;;15.07;;
3875;SDS011;1953;51.222;6.624;2024-01-15T03:43:39;29.70;;;11.60;;
3875;SDS011;1953;51.222;6.624;2024-01-15T03:48:22;20.27;;;9.60;;
3875;SDS011;1953;51.222;6.624;2024-01-15T03:53:04;28.10;;;12.83;;
3875;SDS011;1953;51.222;6.624;2024-01-15T03:57:48;32.67;;;14.10;;
3875;SDS011;1953;51.222;6.624;2024-01-15T04:02:31;27.47;;;13.20;;
3875;SDS011;1953;51.222;6.624;2024-01-15T04:07:13;13.07;;;6.10;;
3875;SDS011;1953;51.222;6.624;2024-01-15T04:11:56;32.93;;;15.67;;
3875;SDS011;1953;51.222;6.624;2024-01-15T04:16:40;27.40;;;12.50;;
3875;SDS011;1953;51.222;6.624;2024-01-15T04:21:22;29.60;;;11.73;;
3875;SDS011;1953;51.222;6.624;2024-01-15T04:26:04;26.63;;;11.07;;
3875;SDS011;1953;51.222;6.624;2024-01-15T04:30:47;29.60;;;13.60;;
3875;SDS011;1953;51.222;6.624;2024-01-15T04:35:31;29.90;;;13.60;;
3875;SDS011;1953;51.222;6.624;2024-01-15T04:40:14;28.53;;;10.47;;
3875;SDS011;1953;51.222;6.624;2024-01-15T04:44:57;32.30;;;11.70;;
3875;SDS011;1953;51.222;6.624;2024-01-15T04:49:40;28.23;;;14.70;;
3875;SDS011;1953;51.222;6.624;2024-01-15T04:54:23;33.13;;;14.37;;
3875;SDS011;1953;51.222;6.624;2024-01-15T04:59:06;17.47;;;7.77;;
3875;SDS011;1953;51.222;6.624;2024-01-15T05:03:49;25.90;;;13.40;;
3875;SDS011;1953;51.222;6.624;2024-01-15T05:08:31;27.97;;;12.57;;
3875;SDS011;1953;51.222;6.624;2024-01-15T05:13:15;22.77;;;10.67;;
3875;SDS011;1953;51.222;6.624;2024-01-15T05:17:57;26.93;;;11.73;;
3875;SDS011;1953;51.222;6.624;2024-01-15T05:22:40;16.33;;;7.37;;
3875;SDS011;1953;51.222;6.624;2024-01-15T05:27:22;19.93;;;9.20;;
3875;SDS011;1953;51.222;6.624;2024-01-15T05:32:06;21.00;;;10.17;;
3875;SDS011;1953;51.222;6.624;2024-01-15T05:36:49;29.10;;;11.77;;
3875;SDS011;1953;51.222;6.624;2024-01-15T05:41:31;19.53;;;9.93;;
3875;SDS011;1953;51.222;6.624;2024-01-15T05:46:14;24.20;;;12.10;;
3875;SDS011;1953;51.222;6.624;2024-01-15T05:50:58;17.00;;;8.70;;
3875;SDS011;1953;51.222;6.624;2024-01-15T05:55:40;23.43;;;12.50;;
3875;SDS011;1953;51.222;6.624;2024-01-15T06:00:23;21.00;;;9.63;;
3875;SDS011;1953;51.222;6.624;2024-01-15T06:05:05;19.40;;;10.10;;
3875;SDS011;1953;51.222;6.624;2024-01-15T06:09:49;16.20;;;8.93;;
3875;SDS011;1953;51.222;6.624;2024-01-15T06:14:32;24.20;;;11.57;;
3875;SDS011;1953;51.222;6.624;2024-01-15T06:19:14;12.93;;;7.20;;
3875;SDS011;1953;51.222;6.624;2024-01-15T06:23:57;14.93;;;7.00;;
3875;SDS011;1953;51.222;6.624;2024-01-15T06:28:41;9.30;;;5.23;;
3875;SDS011;1953;51.222;6.624;2024-01-15T06:33:23;16.33;;;8.20;;
3875;SDS011;1953;51.222;6.624;2024-01-15T06:38:06;18.97;;;8.47;;
3875;SDS011;1953;51.222;6.624;2024-01-15T06:42:48;20.93;;;8.40;;
3875;SDS011;1953;51.222;6.624;2024-01-15T06:47:32;20.03;;;9.23;;
3875;SDS011;1953;51.222;6.624;2024-01-15T06:52:14;21.67;;;11.40;;
3875;SDS011;1953;51.222;6.624;2024-01-15T06:56:57;19.93;;;10.10;;
3875;SDS011;1953;51.222;6.624;2024-01-15T07:01:39;22.60;;;11.87;;
3875;SDS011;1953;51.222;6.624;2024-01-15T07:06:23;26.87;;;12.93;;
3875;SDS011;1953;51.222;6.624;2024-01-15T07:11:06;27.77;;;12.37;;
3875;SDS011;1953;51.222;6.624;2024-01-15T07:15:49;32.30;;;13.00;;
3875;SDS011;1953;51.222;6.624;2024-01-15T07:20:32;22.30;;;10.40;;
3875;SDS011;1953;51.222;6.624;2024-01-15T07:25:16;22.23;;;11.93;;
3875;SDS011;1953;51.222;6.624;2024-01-15T07:29:58;20.77;;;9.70;;
3875;SDS011;1953;51.222;6.624;2024-01-15T07:34:41;15.33;;;6.67;;
3875;SDS011;1953;51.222;6.624;2024-01-15T07:39:23;21.60;;;10.97;;
3875;SDS011;1953;51.222;6.624;2024-01-15T07:44:08;15.73;;;8.43;;
3875;SDS011;1953;51.222;6.624;2024-01-15T07:48:50;20.13;;;9.23;;
3875;SDS011;1953;51.222;6.624;2024-01-15T07:53:36;28.00;;;13.27;;
3875;SDS011;1953;51.222;6.624;2024-01-15T07:58:19;25.07;;;13.80;;
3875;SDS011;1953;51.222;6.624;2024-01-15T08:03:03;26.97;;;12.77;;
3875;SDS011;1953;51.222;6.624;2024-01-15T08:07:47;28.83;;;13.50;;
3875;SDS011;1953;51.222;6.624;2024-01-15T08:12:29;16.20;;;8.40;;
3875;SDS011;1953;51.222;6.624;2024-01-15T08:17:12;34.73;;;13.33;;
3875;SDS011;1953;51.222;6.624;2024-01-15T08:21:56;23.63;;;10.20;;
3875;SDS011;1953;51.222;6.624;2024-01-15T08:26:39;28.63;;;12.97;;
3875;SDS011;1953;51.222;6.624;2024-01-15T08:31:21;15.27;;;7.80;;
3875;SDS011;1953;51.222;6.624;2024-01-15T08:36:04;23.47;;;11.67;;
3875;SDS011;1953;51.222;6.624;2024-01-15T08:40:49;22.70;;;11.87;;
3875;SDS011;1953;51.222;6.624;2024-01-15T08:45:31;30.93;;;15.60;;
3875;SDS011;1953;51.222;6.624;2024-01-15T08:50:14;23.37;;;11.70;;
3875;SDS011;1953;51.222;6.624;2024-01-15T08:54:57;30.53;;;15.37;;
3875;SDS011;1953;51.222;6.624;2024-01-15T08:59:40;23.30;;;11.87;;
3875;SDS011;1953;51.222;6.624;2024-01-15T09:04:23;28.50;;;14.60;;
3875;SDS011;1953;51.222;6.624;2024-01-15T09:09:06;21.50;;;10.97;;
3875;SDS011;1953;51.222;6.624;2024-01-15T09:13:48;29.33;;;14.80;;
3875;SDS011;1953;51.222;6.624;2024-01-15T09:18:34;33.70;;;16.80;;
3875;SDS011;1953;51.222;6.624;2024-01-15T09:23:16;28.80;;;14.90;;
3875;SDS011;1953;51.222;6.624;2024-01-15T09:27:59;25.40;;;12.73;;
3875;SDS011;1953;51.222;6.624;2024-01-15T09:32:41;27.67;;;14.27;;
3875;SDS011;1953;51.222;6.624;2024-01-15T09:37:25;23.10;;;12.77;;
3875;SDS011;1953;51.222;6.624;2024-01-15T09:42:08;17.73;;;8.77;;
3875;SDS011;1953;51.222;6.624;2024-01-15T09:46:52;16.07;;;8.83;;
3875;SDS011;1953;51.222;6.624;2024-01-15T09:51:37;13.40;;;6.60;;
3875;SDS011;1953;51.222;6.624;2024-01-15T09:56:22;16.77;;;8.80;;
3875;SDS011;1953;51.222;6.624;2024-01-15T10:01:05;15.80;;;7.50;;
3875;SDS011;1953;51.222;6.624;2024-01-15T10:05:48;14.30;;;8.00;;
3875;SDS011;1953;51.222;6.624;2024-01-15T10:10:31;8.57;;;4.47;;
3875;SDS011;1953;51.222;6.624;2024-01-15T10:15:16;10.17;;;6.27;;
3875;SDS011;1953;51.222;6.624;2024-01-15T10:20:00;14.10;;;7.23;;
3875;SDS011;1953;51.222;6.624;2024-01-15T10:24:45;12.00;;;6.10;;
3875;SDS011;1953;51.222;6.624;2024-01-15T10:29:29;10.20;;;5.73;;
3875;SDS011;1953;51.222;6.624;2024-01-15T10:34:13;5.87;;;3.70;;
3875;SDS011;1953;51.222;6.624;2024-01-15T10:38:57;9.73;;;5.37;;
3875;SDS011;1953;51.222;6.624;2024-01-15T10:43:40;6.90;;;3.50;;
3875;SDS011;1953;51.222;6.624;2024-01-15T10:48:23;8.60;;;4.57;;
3875;SDS011;1953;51.222;6.624;2024-01-15T10:53:08;10.00;;;5.37;;
3875;SDS011;1953;51.222;6.624;2024-01-15T10:57:53;4.03;;;2.73;;
3875;SDS011;1953;51.222;6.624;2024-01-15T11:02:37;3.90;;;2.23;;
3875;SDS011;1953;51.222;6.624;2024-01-15T11:07:20;5.33;;;2.40;;
3875;SDS011;1953;51.222;6.624;2024-01-15T11:12:11;4.10;;;2.37;;
3875;SDS011;1953;51.222;6.624;2024-01-15T11:16:54;6.83;;;2.80;;
3875;SDS011;1953;51.222;6.624;2024-01-15T11:21:41;4.87;;;2.53;;
3875;SDS011;1953;51.222;6.624;2024-01-15T11:26:28;5.87;;;3.00;;
3875;SDS011;1953;51.222;6.624;2024-01-15T11:31:14;5.67;;;3.70;;
3875;SDS011;1953;51.222;6.624;2024-01-15T11:35:57;8.27;;;3.50;;
3875;SDS011;1953;51.222;6.624;2024-01-15T11:40:39;9.10;;;4.90;;
3875;SDS011;1953;51.222;6.624;2024-01-15T11:45:25;8.33;;;4.50;;
3875;SDS011;1953;51.222;6.624;2024-01-15T11:50:10;12.10;;;5.50;;
3875;SDS011;1953;51.222;6.624;2024-01-15T11:54:54;8.80;;;4.30;;
3875;SDS011;1953;51.222;6.624;2024-01-15T11:59:43;9.73;;;4.80;;
3875;SDS011;1953;51.222;6.624;2024-01-15T12:04:25;11.67;;;4.07;;
3875;SDS011;1953;51.222;6.624;2024-01-15T12:09:09;8.53;;;5.30;;
3875;SDS011;1953;51.222;6.624;2024-01-15T12:13:52;12.67;;;6.70;;
3875;SDS011;1953;51.222;6.624;2024-01-15T12:21:44;19.87;;;7.23;;
3875;SDS011;1953;51.222;6.624;2024-01-15T12:26:26;15.93;;;9.73;;
3875;SDS011;1953;51.222;6.624;2024-01-15T12:31:09;15.07;;;8.10;;
3875;SDS011;1953;51.222;6.624;2024-01-15T12:35:52;19.60;;;10.40;;
3875;SDS011;1953;51.222;6.624;2024-01-15T12:40:36;18.33;;;10.00;;
3875;SDS011;1953;51.222;6.624;2024-01-15T12:45:19;15.00;;;9.93;;
3875;SDS011;1953;51.222;6.624;2024-01-15T12:50:01;15.97;;;8.80;;
3875;SDS011;1953;51.222;6.624;2024-01-15T12:54:44;13.43;;;7.90;;
3875;SDS011;1953;51.222;6.624;2024-01-15T12:59:28;13.53;;;5.43;;
3875;SDS011;1953;51.222;6.624;2024-01-15T13:04:10;8.00;;;4.70;;
3875;SDS011;1953;51.222;6.624;2024-01-15T13:08:53;13.20;;;7.33;;
3875;SDS011;1953;51.222;6.624;2024-01-15T13:13:36;10.00;;;5.37;;
3875;SDS011;1953;51.222;6.624;2024-01-15T13:18:20;7.77;;;4.90;;
3875;SDS011;1953;51.222;6.624;2024-01-15T13:23:02;8.73;;;4.57;;
3875;SDS011;1953;51.222;6.624;2024-01-15T13:27:45;8.77;;;4.00;;
3875;SDS011;1953;51.222;6.624;2024-01-15T13:32:28;5.60;;;3.03;;
3875;SDS011;1953;51.222;6.624;2024-01-15T13:37:12;7.50;;;4.03;;
3875;SDS011;1953;51.222;6.624;2024-01-15T13:41:55;6.73;;;3.37;;
3875;SDS011;1953;51.222;6.624;2024-01-15T13:46:37;5.77;;;3.33;;
3875;SDS011;1953;51.222;6.624;2024-01-15T13:51:21;3.57;;;2.33;;
3875;SDS011;1953;51.222;6.624;2024-01-15T13:56:06;4.17;;;2.80;;
3875;SDS011;1953;51.222;6.624;2024-01-15T14:00:51;5.20;;;3.10;;
3875;SDS011;1953;51.222;6.624;2024-01-15T14:05:33;4.23;;;2.27;;
3875;SDS011;1953;51.222;6.624;2024-01-15T14:10:16;5.13;;;3.20;;
3875;SDS011;1953;51.222;6.624;2024-01-15T14:15:00;5.67;;;2.97;;
3875;SDS011;1953;51.222;6.624;2024-01-15T14:19:43;3.80;;;1.67;;
3875;SDS011;1953;51.222;6.624;2024-01-15T14:24:25;4.70;;;2.57;;
3875;SDS011;1953;51.222;6.624;2024-01-15T14:29:08;4.43;;;3.30;;
3875;SDS011;1953;51.222;6.624;2024-01-15T14:33:51;2.80;;;1.63;;
3875;SDS011;1953;51.222;6.624;2024-01-15T14:38:35;4.73;;;2.47;;
3875;SDS011;1953;51.222;6.624;2024-01-15T14:43:18;5.50;;;3.43;;
3875;SDS011;1953;51.222;6.624;2024-01-15T14:48:00;4.00;;;2.83;;
3875;SDS011;1953;51.222;6.624;2024-01-15T14:52:44;5.33;;;3.53;;
3875;SDS011;1953;51.222;6.624;2024-01-15T14:57:28;4.83;;;2.43;;
3875;SDS011;1953;51.222;6.624;2024-01-15T15:02:11;4.00;;;2.27;;
3875;SDS011;1953;51.222;6.624;2024-01-15T15:06:53;5.93;;;2.70;;
3875;SDS011;1953;51.222;6.624;2024-01-15T15:11:37;8.03;;;2.50;;
3875;SDS011;1953;51.222;6.624;2024-01-15T15:16:20;6.30;;;3.13;;
3875;SDS011;1953;51.222;6.624;2024-01-15T15:21:02;5.63;;;3.30;;
3875;SDS011;1953;51.222;6.624;2024-01-15T15:25:45;7.73;;;2.97;;
3875;SDS011;1953;51.222;6.624;2024-01-15T15:30:29;5.27;;;3.20;;
3875;SDS011;1953;51.222;6.624;2024-01-15T15:35:12;6.13;;;3.83;;
3875;SDS011;1953;51.222;6.624;2024-01-15T15:39:54;4.30;;;2.73;;
3875;SDS011;1953;51.222;6.624;2024-01-15T15:44:37;4.53;;;2.63;;
3875;SDS011;1953;51.222;6.624;2024-01-15T15:49:25;6.83;;;4.03;;
3875;SDS011;1953;51.222;6.624;2024-01-15T15:54:08;11.10;;;3.53;;
3875;SDS011;1953;51.222;6.624;2024-01-15T15:58:52;3.73;;;2.43;;
3875;SDS011;1953;51.222;6.624;2024-01-15T16:03:34;6.33;;;4.43;;
3875;SDS011;1953;51.222;6.624;2024-01-15T16:08:18;10.73;;;5.07;;
3875;SDS011;1953;51.222;6.624;2024-01-15T16:13:01;8.37;;;5.30;;
3875;SDS011;1953;51.222;6.624;2024-01-15T16:17:44;7.40;;;4.23;;
3875;SDS011;1953;51.222;6.624;2024-01-15T16:22:26;12.30;;;3.87;;
3875;SDS011;1953;51.222;6.624;2024-01-15T16:27:10;8.50;;;4.57;;
3875;SDS011;1953;51.222;6.624;2024-01-15T16:31:52;8.20;;;4.43;;
3875;SDS011;1953;51.222;6.624;2024-01-15T16:36:35;11.13;;;6.30;;
3875;SDS011;1953;51.222;6.624;2024-01-15T16:41:17;13.23;;;5.00;;
3875;SDS011;1953;51.222;6.624;2024-01-15T16:46:01;11.23;;;4.80;;
3875;SDS011;1953;51.222;6.624;2024-01-15T16:50:44;16.27;;;7.17;;
3875;SDS011;1953;51.222;6.624;2024-01-15T16:55:26;14.07;;;7.50;;
3875;SDS011;1953;51.222;6.624;2024-01-15T17:00:09;15.17;;;7.07;;
3875;SDS011;1953;51.222;6.624;2024-01-15T17:04:54;23.07;;;7.00;;
3875;SDS011;1953;51.222;6.624;2024-01-15T17:09:36;14.17;;;7.07;;
3875;SDS011;1953;51.222;6.624;2024-01-15T17:14:19;16.33;;;7.30;;
3875;SDS011;1953;51.222;6.624;2024-01-15T17:19:01;12.77;;;5.93;;
3875;SDS011;1953;51.222;6.624;2024-01-15T17:23:45;16.43;;;6.70;;
3875;SDS011;1953;51.222;6.624;2024-01-15T17:28:28;13.60;;;5.47;;
3875;SDS011;1953;51.222;6.624;2024-01-15T17:33:11;10.63;;;4.80;;
3875;SDS011;1953;51.222;6.624;2024-01-15T17:37:54;14.60;;;7.00;;
3875;SDS011;1953;51.222;6.624;2024-01-15T17:42:38;13.27;;;6.37;;
3875;SDS011;1953;51.222;6.624;2024-01-15T17:47:20;10.73;;;6.57;;
3875;SDS011;1953;51.222;6.624;2024-01-15T17:52:03;13.93;;;6.77;;
3875;SDS011;1953;51.222;6.624;2024-01-15T17:56:46;12.83;;;6.70;;
3875;SDS011;1953;51.222;6.624;2024-01-15T18:01:30;8.07;;;4.63;;
3875;SDS011;1953;51.222;6.624;2024-01-15T18:06:12;11.07;;;6.07;;
3875;SDS011;1953;51.222;6.624;2024-01-15T18:10:55;15.03;;;6.43;;
3875;SDS011;1953;51.222;6.624;2024-01-15T18:15:38;10.07;;;6.03;;
3875;SDS011;1953;51.222;6.624;2024-01-15T18:20:22;9.53;;;5.00;;
3875;SDS011;1953;51.222;6.624;2024-01-15T18:25:04;13.30;;;5.37;;
3875;SDS011;1953;51.222;6.624;2024-01-15T18:29:48;10.80;;;4.80;;
3875;SDS011;1953;51.222;6.624;2024-01-15T18:34:31;13.83;;;6.70;;
3875;SDS011;1953;51.222;6.624;2024-01-15T18:39:15;12.27;;;5.67;;
3875;SDS011;1953;51.222;6.624;2024-01-15T18:43:58;17.77;;;6.73;;
3875;SDS011;1953;51.222;6.624;2024-01-15T18:48:42;11.43;;;4.73;;
3875;SDS011;1953;51.222;6.624;2024-01-15T18:53:25;11.30;;;5.50;;
3875;SDS011;1953;51.222;6.624;2024-01-15T18:58:09;16.10;;;5.60;;
3875;SDS011;1953;51.222;6.624;2024-01-15T19:02:51;12.50;;;5.27;;
3875;SDS011;1953;51.222;6.624;2024-01-15T19:07:38;16.90;;;5.93;;
3875;SDS011;1953;51.222;6.624;2024-01-15T19:12:20;15.13;;;5.87;;
3875;SDS011;1953;51.222;6.624;2024-01-15T19:17:04;18.87;;;8.00;;
3875;SDS011;1953;51.222;6.624;2024-01-15T19:21:47;18.20;;;8.60;;
3875;SDS011;1953;51.222;6.624;2024-01-15T19:26:29;10.47;;;5.60;;
3875;SDS011;1953;51.222;6.624;2024-01-15T19:31:12;25.60;;;7.50;;
3875;SDS011;1953;51.222;6.624;2024-01-15T19:35:56;15.93;;;8.13;;
3875;SDS011;1953;51.222;6.624;2024-01-15T19:40:38;21.37;;;9.50;;
3875;SDS011;1953;51.222;6.624;2024-01-15T19:45:22;20.03;;;9.13;;
3875;SDS011;1953;51.222;6.624;2024-01-15T19:50:05;20.50;;;8.40;;
3875;SDS011;1953;51.222;6.624;2024-01-15T19:54:50;18.43;;;9.80;;
3875;SDS011;1953;51.222;6.624;2024-01-15T19:59:32;21.23;;;10.07;;
3875;SDS011;1953;51.222;6.624;2024-01-15T20:04:15;14.83;;;7.67;;
3875;SDS011;1953;51.222;6.624;2024-01-15T20:08:57;16.20;;;9.47;;
3875;SDS011;1953;51.222;6.624;2024-01-15T20:13:41;22.40;;;10.47;;
3875;SDS011;1953;51.222;6.624;2024-01-15T20:18:23;27.00;;;10.80;;
3875;SDS011;1953;51.222;6.624;2024-01-15T20:23:06;24.00;;;10.60;;
3875;SDS011;1953;51.222;6.624;2024-01-15T20:27:49;19.87;;;11.57;;
3875;SDS011;1953;51.222;6.624;2024-01-15T20:32:34;35.93;;;13.00;;
3875;SDS011;1953;51.222;6.624;2024-01-15T20:37:16;19.40;;;10.30;;
3875;SDS011;1953;51.222;6.624;2024-01-15T20:41:59;26.50;;;11.73;;
3875;SDS011;1953;51.222;6.624;2024-01-15T20:46:42;19.70;;;7.67;;
3875;SDS011;1953;51.222;6.624;2024-01-15T20:51:26;25.60;;;11.67;;
3875;SDS011;1953;51.222;6.624;2024-01-15T20:56:08;10.67;;;5.80;;
3875;SDS011;1953;51.222;6.624;2024-01-15T21:00:51;22.10;;;8.33;;
3875;SDS011;1953;51.222;6.624;2024-01-15T21:05:35;17.80;;;8.60;;
3875;SDS011;1953;51.222;6.624;2024-01-15T21:10:19;16.47;;;7.87;;
3875;SDS011;1953;51.222;6.624;2024-01-15T21:15:02;9.30;;;4.37;;
3875;SDS011;1953;51.222;6.624;2024-01-15T21:19:44;25.03;;;9.17;;
3875;SDS011;1953;51.222;6.624;2024-01-15T21:24:27;22.70;;;7.83;;
3875;SDS011;1953;51.222;6.624;2024-01-15T21:29:11;19.97;;;9.07;;
3875;SDS011;1953;51.222;6.624;2024-01-15T21:33:55;16.30;;;7.70;;
3875;SDS011;1953;51.222;6.624;2024-01-15T21:38:38;21.73;;;9.57;;
3875;SDS011;1953;51.222;6.624;2024-01-15T21:43:20;18.13;;;9.60;;
3875;SDS011;1953;51.222;6.624;2024-01-15T21:48:04;8.33;;;5.10;;
3875;SDS011;1953;51.222;6.624;2024-01-15T21:52:47;16.67;;;7.53;;
3875;SDS011;1953;51.222;6.624;2024-01-15T21:57:30;27.70;;;12.80;;
3875;SDS011;1953;51.222;6.624;2024-01-15T22:02:12;34.10;;;14.97;;
3875;SDS011;1953;51.222;6.624;2024-01-15T22:06:56;18.90;;;9.00;;
3875;SDS011;1953;51.222;6.624;2024-01-15T22:11:38;29.10;;;13.80;;
3875;SDS011;1953;51.222;6.624;2024-01-15T22:16:21;23.20;;;6.80;;
3875;SDS011;1953;51.222;6.624;2024-01-15T22:21:04;27.97;;;13.97;;
3875;SDS011;1953;51.222;6.624;2024-01-15T22:25:48;27.47;;;13.70;;
3875;SDS011;1953;51.222;6.624;2024-01-15T22:30:30;30.03;;;13.40;;
3875;SDS011;1953;51.222;6.624;2024-01-15T22:35:12;24.40;;;9.07;;
3875;SDS011;1953;51.222;6.624;2024-01-15T22:39:55;14.67;;;7.73;;
3875;SDS011;1953;51.222;6.624;2024-01-15T22:44:40;24.33;;;13.00;;
3875;SDS011;1953;51.222;6.624;2024-01-15T22:49:22;32.50;;;13.20;;
3875;SDS011;1953;51.222;6.624;2024-01-15T22:54:05;24.00;;;12.60;;
3875;SDS011;1953;51.222;6.624;2024-01-15T22:58:47;31.07;;;14.30;;
3875;SDS011;1953;51.222;6.624;2024-01-15T23:03:31;15.27;;;9.07;;
3875;SDS011;1953;51.222;6.624;2024-01-15T23:08:14;21.23;;;9.53;;
3875;SDS011;1953;51.222;6.624;2024-01-15T23:12:56;14.73;;;7.97;;
3875;SDS011;1953;51.222;6.624;2024-01-15T23:17:39;18.70;;;9.10;;
3875;SDS011;1953;51.222;6.624;2024-01-15T23:22:25;18.10;;;9.87;;
3875;SDS011;1953;51.222;6.624;2024-01-15T23:27:08;23.90;;;10.70;;
3875;SDS011;1953;51.222;6.624;2024-01-15T23:31:51;15.40;;;7.50;;
3875;SDS011;1953;51.222;6.624;2024-01-15T23:36:33;22.00;;;10.27;;
3875;SDS011;1953;51.222;6.624;2024-01-15T23:41:20;21.53;;;8.93;;
3875;SDS011;1953;51.222;6.624;2024-01-15T23:46:03;16.53;;;8.50;;
3875;SDS011;1953;51.222;6.624;2024-01-15T23:50:46;13.10;;;6.97;;
3875;SDS011;1953;51.222;6.624;2024-01-15T23:55:28;17.03;;;8.03;;
